createdAt,value
2023-04-27T00:01:12.246Z,1.00
2023-04-27T00:03:43.803Z,0.90
2023-04-27T00:06:14.850Z,0.80
2023-04-27T00:08:45.215Z,0.60
2023-04-27T00:11:15.755Z,0.50
2023-04-27T00:13:46.220Z,0.30
2023-04-27T00:16:18.353Z,0.20
2023-04-27T00:18:48.998Z,0.20
2023-04-27T00:21:20.099Z,0.10
2023-04-27T00:23:50.688Z,0.00
2023-04-27T00:26:22.574Z,0.00
2023-04-27T00:28:54.373Z,0.00
2023-04-27T00:31:29.385Z,0.00
2023-04-27T00:34:00.177Z,-0.10
2023-04-27T00:36:31.398Z,0.00
2023-04-27T00:39:01.629Z,0.00
2023-04-27T00:41:32.855Z,0.00
2023-04-27T00:44:03.257Z,0.00
2023-04-27T00:46:36.513Z,0.00
2023-04-27T00:49:07.006Z,0.00
2023-04-27T00:51:37.742Z,-0.10
2023-04-27T00:54:08.769Z,-0.20
2023-04-27T00:56:39.894Z,-0.20
2023-04-27T00:59:10.206Z,-0.20
2023-04-27T01:01:42.651Z,-0.20
2023-04-27T01:04:13.356Z,-0.20
2023-04-27T01:06:43.922Z,-0.20
2023-04-27T01:09:14.573Z,-0.30
2023-04-27T01:11:45.423Z,-0.30
2023-04-27T01:14:15.569Z,-0.30
2023-04-27T01:16:47.745Z,-0.40
2023-04-27T01:19:18.459Z,-0.40
2023-04-27T01:21:49.133Z,-0.40
2023-04-27T01:24:21.333Z,-0.50
2023-04-27T01:26:54.012Z,-0.50
2023-04-27T01:29:24.256Z,-0.40
2023-04-27T01:31:54.860Z,-0.50
2023-04-27T01:34:26.452Z,-0.50
2023-04-27T01:36:57.283Z,-0.40
2023-04-27T01:39:29.052Z,-0.50
2023-04-27T01:41:59.578Z,-0.50
2023-04-27T01:44:29.677Z,-0.50
2023-04-27T01:47:00.844Z,-0.50
2023-04-27T01:49:31.285Z,-0.60
2023-04-27T01:52:02.086Z,-0.60
2023-04-27T01:54:33.621Z,-0.60
2023-04-27T01:57:04.648Z,-0.60
2023-04-27T01:59:36.534Z,-0.70
2023-04-27T02:02:07.918Z,-0.60
2023-04-27T02:04:40.810Z,-0.60
2023-04-27T02:07:12.032Z,-0.70
2023-04-27T02:09:44.097Z,-0.70
2023-04-27T02:12:17.275Z,-0.70
2023-04-27T02:14:48.646Z,-0.60
2023-04-27T02:17:19.489Z,-0.70
2023-04-27T02:19:49.610Z,-0.70
2023-04-27T02:22:20.150Z,-0.70
2023-04-27T02:24:52.335Z,-0.70
2023-04-27T02:27:24.672Z,-0.70
2023-04-27T02:29:55.922Z,-0.80
2023-04-27T02:32:36.115Z,-0.80
2023-04-27T02:35:07.935Z,-0.80
2023-04-27T02:37:38.528Z,-0.80
2023-04-27T02:40:12.134Z,-0.90
2023-04-27T02:42:42.814Z,-0.80
2023-04-27T02:45:15.086Z,-0.80
2023-04-27T02:47:45.692Z,-0.80
2023-04-27T02:50:17.344Z,-0.90
2023-04-27T02:52:48.013Z,-0.90
2023-04-27T02:55:21.636Z,-0.90
2023-04-27T02:57:52.970Z,-0.90
2023-04-27T03:00:24.580Z,-0.90
2023-04-27T03:02:55.412Z,-0.90
2023-04-27T03:05:29.140Z,-0.90
2023-04-27T03:07:59.687Z,-0.90
2023-04-27T03:10:31.409Z,-1.00
2023-04-27T03:13:02.327Z,-1.00
2023-04-27T03:15:36.471Z,-1.10
2023-04-27T03:18:07.728Z,-1.10
2023-04-27T03:20:38.368Z,-1.00
2023-04-27T03:23:09.850Z,-1.10
2023-04-27T03:25:41.724Z,-1.10
2023-04-27T03:28:12.529Z,-1.10
2023-04-27T03:30:44.170Z,-1.10
2023-04-27T03:33:15.466Z,-1.10
2023-04-27T03:35:45.974Z,-1.00
2023-04-27T03:38:18.043Z,-1.00
2023-04-27T03:40:50.506Z,-1.00
2023-04-27T03:43:22.562Z,-0.90
2023-04-27T03:45:53.141Z,-0.90
2023-04-27T03:48:24.012Z,-0.80
2023-04-27T03:50:56.770Z,-0.70
2023-04-27T03:53:27.470Z,-0.60
2023-04-27T03:55:59.693Z,-0.50
2023-04-27T03:58:31.114Z,-0.50
2023-04-27T04:01:25.017Z,-0.30
2023-04-27T04:03:56.006Z,-0.10
2023-04-27T04:06:28.099Z,0.10
2023-04-27T04:08:59.537Z,0.30
2023-04-27T04:11:31.489Z,0.50
2023-04-27T04:14:03.582Z,0.60
2023-04-27T04:16:35.447Z,0.70
2023-04-27T04:19:09.529Z,1.00
2023-04-27T04:21:40.483Z,1.10
2023-04-27T04:24:12.208Z,1.30
2023-04-27T04:26:44.467Z,1.50
2023-04-27T04:29:15.991Z,1.70
2023-04-27T04:31:46.872Z,1.80
2023-04-27T04:34:19.729Z,1.80
2023-04-27T04:36:52.476Z,1.80
2023-04-27T04:39:24.178Z,1.90
2023-04-27T04:41:55.929Z,1.80
2023-04-27T04:44:29.657Z,1.90
2023-04-27T04:46:59.951Z,2.00
2023-04-27T04:49:30.752Z,2.10
2023-04-27T04:52:01.128Z,2.10
2023-04-27T04:54:35.295Z,2.10
2023-04-27T04:57:07.864Z,2.30
2023-04-27T04:59:41.464Z,2.40
2023-04-27T05:02:11.931Z,2.70
2023-04-27T05:04:45.932Z,2.80
2023-04-27T05:07:22.121Z,2.80
2023-04-27T05:09:58.421Z,3.00
2023-04-27T05:12:32.782Z,2.70
2023-04-27T05:15:04.797Z,2.70
2023-04-27T05:17:35.387Z,2.80
2023-04-27T05:20:10.226Z,2.90
2023-04-27T05:22:45.306Z,3.00
2023-04-27T05:25:16.723Z,2.90
2023-04-27T05:27:48.314Z,3.00
2023-04-27T05:30:33.806Z,2.90
2023-04-27T05:33:04.788Z,3.00
2023-04-27T05:35:36.656Z,3.50
2023-04-27T05:38:06.961Z,3.70
2023-04-27T05:40:37.764Z,3.70
2023-04-27T05:43:10.753Z,3.90
2023-04-27T05:45:42.179Z,3.60
2023-04-27T05:48:12.522Z,3.80
2023-04-27T05:50:43.464Z,4.10
2023-04-27T05:53:17.970Z,4.20
2023-04-27T05:55:50.887Z,3.90
2023-04-27T05:58:24.096Z,4.30
2023-04-27T06:00:57.518Z,4.80
2023-04-27T06:03:28.711Z,4.80
2023-04-27T06:06:02.394Z,4.60
2023-04-27T06:08:32.704Z,5.00
2023-04-27T06:11:03.374Z,5.10
2023-04-27T06:13:35.174Z,4.80
2023-04-27T06:16:08.276Z,4.70
2023-04-27T06:18:39.436Z,4.90
2023-04-27T06:21:10.244Z,4.70
2023-04-27T06:23:42.814Z,5.20
2023-04-27T06:26:13.751Z,4.90
2023-04-27T06:28:45.859Z,4.70
2023-04-27T06:31:16.771Z,5.00
2023-04-27T06:33:48.611Z,5.30
2023-04-27T06:36:21.181Z,5.20
2023-04-27T06:38:56.731Z,5.40
2023-04-27T06:41:28.606Z,5.40
2023-04-27T06:44:03.210Z,5.60
2023-04-27T06:46:35.179Z,5.70
2023-04-27T06:49:05.592Z,5.60
2023-04-27T06:51:40.004Z,6.00
2023-04-27T06:54:10.783Z,6.10
2023-04-27T06:56:41.732Z,6.30
2023-04-27T06:59:13.731Z,6.50
2023-04-27T07:01:47.518Z,6.50
2023-04-27T07:04:17.878Z,7.00
2023-04-27T07:06:48.683Z,7.00
2023-04-27T07:09:27.455Z,7.10
2023-04-27T07:12:01.354Z,7.60
2023-04-27T07:14:33.910Z,7.40
2023-04-27T07:17:05.300Z,7.40
2023-04-27T07:19:36.079Z,7.30
2023-04-27T07:22:07.012Z,7.70
2023-04-27T07:24:37.369Z,8.00
2023-04-27T07:27:08.365Z,8.90
2023-04-27T07:29:40.131Z,8.80
2023-04-27T07:32:11.586Z,9.00
2023-04-27T07:34:52.802Z,9.20
2023-04-27T07:37:25.083Z,8.40
2023-04-27T07:39:56.040Z,8.90
2023-04-27T07:42:27.784Z,8.40
2023-04-27T07:45:00.196Z,9.00
2023-04-27T07:47:34.644Z,9.40
2023-04-27T07:50:06.755Z,8.70
2023-04-27T07:52:37.376Z,8.90
2023-04-27T07:55:10.029Z,8.70
2023-04-27T07:57:41.249Z,9.50
2023-04-27T08:00:14.454Z,10.40
2023-04-27T08:02:47.498Z,11.00
2023-04-27T08:05:18.415Z,10.00
2023-04-27T08:07:50.339Z,9.60
2023-04-27T08:10:21.622Z,9.60
2023-04-27T08:12:52.227Z,8.80
2023-04-27T08:15:25.337Z,9.50
2023-04-27T08:17:58.417Z,9.60
2023-04-27T08:20:29.073Z,10.10
2023-04-27T08:23:01.037Z,9.40
2023-04-27T08:25:31.779Z,8.90
2023-04-27T08:28:03.650Z,9.40
2023-04-27T08:30:35.802Z,9.10
2023-04-27T08:33:06.731Z,9.30
2023-04-27T08:35:37.142Z,9.70
2023-04-27T08:38:09.217Z,9.60
2023-04-27T08:40:44.763Z,10.30
2023-04-27T08:43:16.003Z,10.30
2023-04-27T08:45:53.034Z,10.90
2023-04-27T08:48:23.825Z,10.50
2023-04-27T08:50:55.394Z,10.50
2023-04-27T08:53:26.795Z,11.40
2023-04-27T08:55:58.818Z,12.30
2023-04-27T08:58:38.589Z,12.30
2023-04-27T09:01:10.370Z,12.60
2023-04-27T09:03:41.366Z,11.70
2023-04-27T09:06:12.010Z,12.40
2023-04-27T09:08:47.369Z,12.70
2023-04-27T09:11:31.412Z,13.00
2023-04-27T09:14:04.279Z,12.20
2023-04-27T09:16:36.063Z,13.30
2023-04-27T09:19:06.737Z,12.50
2023-04-27T09:21:37.125Z,11.10
2023-04-27T09:24:14.937Z,10.30
2023-04-27T09:26:51.577Z,10.40
2023-04-27T09:29:22.266Z,10.60
2023-04-27T09:31:54.575Z,10.80
2023-04-27T09:34:25.248Z,11.10
2023-04-27T09:36:55.643Z,11.10
2023-04-27T09:39:26.624Z,11.60
2023-04-27T09:42:02.391Z,12.30
2023-04-27T09:44:33.968Z,12.20
2023-04-27T09:47:06.206Z,12.10
2023-04-27T09:49:37.246Z,12.80
2023-04-27T09:52:07.730Z,13.40
2023-04-27T09:54:40.181Z,12.50
2023-04-27T09:57:28.816Z,12.10
2023-04-27T10:00:16.388Z,13.20
2023-04-27T10:03:07.758Z,13.60
2023-04-27T10:06:03.492Z,13.90
2023-04-27T10:08:36.582Z,12.70
2023-04-27T10:11:16.416Z,12.60
2023-04-27T10:13:54.800Z,12.40
2023-04-27T10:16:25.804Z,11.50
2023-04-27T10:18:58.085Z,11.20
2023-04-27T10:21:30.817Z,10.90
2023-04-27T10:24:09.805Z,10.70
2023-04-27T10:26:49.138Z,9.90
2023-04-27T10:29:20.598Z,10.50
2023-04-27T10:31:51.314Z,10.60
2023-04-27T10:34:23.300Z,10.60
2023-04-27T10:37:07.851Z,10.50
2023-04-27T10:39:47.640Z,10.50
2023-04-27T10:42:29.671Z,10.20
2023-04-27T10:45:00.351Z,9.80
2023-04-27T10:47:41.152Z,9.60
2023-04-27T10:50:15.559Z,9.40
2023-04-27T10:52:47.165Z,9.30
2023-04-27T10:55:18.772Z,9.30
2023-04-27T10:57:52.014Z,9.30
2023-04-27T11:00:27.478Z,9.60
2023-04-27T11:03:10.840Z,9.60
2023-04-27T11:05:43.824Z,9.70
2023-04-27T11:08:16.830Z,9.60
2023-04-27T11:10:50.369Z,9.60
2023-04-27T11:13:24.446Z,9.40
2023-04-27T11:15:57.588Z,9.50
2023-04-27T11:18:29.341Z,9.60
2023-04-27T11:21:11.329Z,9.90
2023-04-27T11:23:43.116Z,10.10
2023-04-27T11:26:14.746Z,10.40
2023-04-27T11:28:46.999Z,10.50
2023-04-27T11:31:17.513Z,10.20
2023-04-27T11:33:51.363Z,10.60
2023-04-27T11:36:23.944Z,11.30
2023-04-27T11:39:00.349Z,10.70
2023-04-27T11:41:38.053Z,10.90
2023-04-27T11:44:11.473Z,10.70
2023-04-27T11:46:46.602Z,10.40
2023-04-27T11:49:17.216Z,11.00
2023-04-27T11:51:49.315Z,11.60
2023-04-27T11:54:20.015Z,11.60
2023-04-27T11:56:51.078Z,11.70
2023-04-27T11:59:23.292Z,11.60
2023-04-27T12:01:53.791Z,11.50
2023-04-27T12:04:24.660Z,10.70
2023-04-27T12:06:56.565Z,10.70
2023-04-27T12:09:27.171Z,10.60
2023-04-27T12:12:01.030Z,10.40
2023-04-27T12:14:32.168Z,10.40
2023-04-27T12:17:02.615Z,10.30
2023-04-27T12:19:37.153Z,10.60
2023-04-27T12:22:16.998Z,10.70
2023-04-27T12:24:53.180Z,11.30
2023-04-27T12:27:27.030Z,11.30
2023-04-27T12:29:59.615Z,11.50
2023-04-27T12:32:29.940Z,10.60
2023-04-27T12:35:00.775Z,10.90
2023-04-27T12:37:32.497Z,10.50
2023-04-27T12:40:05.952Z,11.60
2023-04-27T12:42:36.405Z,11.90
2023-04-27T12:45:08.744Z,11.50
2023-04-27T12:47:58.355Z,11.80
2023-04-27T12:50:31.830Z,11.00
2023-04-27T12:53:04.415Z,11.00
2023-04-27T12:55:35.113Z,11.40
2023-04-27T12:58:06.550Z,11.60
2023-04-27T13:00:37.333Z,11.60
2023-04-27T13:03:08.333Z,11.70
2023-04-27T13:05:39.166Z,10.90
2023-04-27T13:08:11.393Z,10.80
2023-04-27T13:10:42.607Z,10.80
2023-04-27T13:13:13.233Z,10.80
2023-04-27T13:15:43.658Z,11.10
2023-04-27T13:18:14.568Z,10.00
2023-04-27T13:20:45.339Z,10.70
2023-04-27T13:23:17.900Z,10.90
2023-04-27T13:25:48.559Z,11.20
2023-04-27T13:28:20.164Z,11.10
2023-04-27T13:30:52.525Z,10.90
2023-04-27T13:33:23.946Z,10.60
2023-04-27T13:35:54.450Z,10.40
2023-04-27T13:38:26.671Z,10.40
2023-04-27T13:40:57.170Z,10.20
2023-04-27T13:43:28.167Z,10.40
2023-04-27T13:46:01.099Z,10.50
2023-04-27T13:48:32.105Z,9.40
2023-04-27T13:51:02.539Z,9.20
2023-04-27T13:53:34.736Z,9.30
2023-04-27T13:56:06.401Z,9.30
2023-04-27T13:58:37.224Z,9.30
2023-04-27T14:01:08.729Z,10.00
2023-04-27T14:03:45.328Z,10.20
2023-04-27T14:06:16.667Z,10.30
2023-04-27T14:08:48.729Z,10.80
2023-04-27T14:11:20.034Z,10.80
2023-04-27T14:13:51.257Z,11.40
2023-04-27T14:16:22.052Z,11.90
2023-04-27T14:18:52.844Z,11.90
2023-04-27T14:21:23.734Z,11.60
2023-04-27T14:23:55.892Z,12.40
2023-04-27T14:26:26.484Z,12.20
2023-04-27T14:28:58.685Z,13.50
2023-04-27T14:31:29.684Z,13.10
2023-04-27T14:34:00.490Z,12.60
2023-04-27T14:36:32.118Z,12.20
2023-04-27T14:39:04.680Z,12.80
2023-04-27T14:41:38.765Z,12.50
2023-04-27T14:44:09.972Z,12.30
2023-04-27T14:46:40.887Z,11.20
2023-04-27T14:49:14.105Z,11.30
2023-04-27T14:51:44.630Z,11.20
2023-04-27T14:54:16.771Z,11.60
2023-04-27T14:56:47.752Z,12.50
2023-04-27T14:59:18.360Z,13.60
2023-04-27T15:01:48.751Z,13.70
2023-04-27T15:04:19.703Z,13.30
2023-04-27T15:06:50.024Z,13.20
2023-04-27T15:09:21.988Z,11.90
2023-04-27T15:11:52.428Z,12.20
2023-04-27T15:14:22.946Z,12.10
2023-04-27T15:16:53.500Z,11.50
2023-04-27T15:19:24.300Z,11.90
2023-04-27T15:21:54.680Z,12.00
2023-04-27T15:24:26.890Z,11.20
2023-04-27T15:26:57.396Z,11.10
2023-04-27T15:29:28.323Z,11.00
2023-04-27T15:31:58.551Z,10.50
2023-04-27T15:34:29.292Z,10.50
2023-04-27T15:36:59.576Z,10.60
2023-04-27T15:39:31.841Z,10.50
2023-04-27T15:42:03.345Z,10.60
2023-04-27T15:44:34.225Z,10.40
2023-04-27T15:47:05.308Z,10.40
2023-04-27T15:49:45.793Z,10.60
2023-04-27T15:52:20.212Z,11.80
2023-04-27T15:54:52.349Z,11.50
2023-04-27T15:57:22.831Z,11.40
2023-04-27T15:59:53.749Z,11.60
2023-04-27T16:02:24.406Z,12.40
2023-04-27T16:04:57.320Z,11.50
2023-04-27T16:07:27.681Z,11.00
2023-04-27T16:09:59.971Z,11.10
2023-04-27T16:12:30.846Z,11.20
2023-04-27T16:15:01.598Z,11.10
2023-04-27T16:17:36.655Z,11.10
2023-04-27T16:20:09.668Z,12.70
2023-04-27T16:22:40.326Z,13.60
2023-04-27T16:25:12.550Z,15.40
2023-04-27T16:27:43.582Z,15.00
2023-04-27T16:30:15.142Z,13.20
2023-04-27T16:32:45.549Z,12.50
2023-04-27T16:35:16.431Z,11.90
2023-04-27T16:37:46.922Z,11.80
2023-04-27T16:40:19.474Z,11.50
2023-04-27T16:42:49.682Z,10.80
2023-04-27T16:45:20.723Z,10.80
2023-04-27T16:47:51.118Z,11.40
2023-04-27T16:50:22.342Z,12.90
2023-04-27T16:52:52.686Z,14.10
2023-04-27T16:55:24.776Z,14.60
2023-04-27T16:57:55.047Z,14.20
2023-04-27T17:00:26.045Z,15.40
2023-04-27T17:02:56.742Z,14.00
2023-04-27T17:05:27.658Z,12.70
2023-04-27T17:07:58.054Z,12.10
2023-04-27T17:10:30.406Z,11.20
2023-04-27T17:13:01.004Z,10.60
2023-04-27T17:15:32.521Z,10.30
2023-04-27T17:18:08.183Z,10.30
2023-04-27T17:20:40.994Z,10.00
2023-04-27T17:23:16.103Z,10.00
2023-04-27T17:25:49.399Z,10.00
2023-04-27T17:28:24.235Z,10.00
2023-04-27T17:30:56.555Z,10.20
2023-04-27T17:33:27.001Z,10.10
2023-04-27T17:35:57.687Z,10.10
2023-04-27T17:38:28.775Z,10.20
2023-04-27T17:41:01.053Z,10.20
2023-04-27T17:43:31.529Z,10.40
2023-04-27T17:46:02.378Z,10.70
2023-04-27T17:48:32.763Z,10.80
2023-04-27T17:51:15.858Z,10.40
2023-04-27T17:53:47.061Z,9.80
2023-04-27T17:56:19.054Z,9.50
2023-04-27T17:58:49.485Z,9.10
2023-04-27T18:01:20.336Z,8.70
2023-04-27T18:03:51.247Z,8.40
2023-04-27T18:06:22.253Z,8.00
2023-04-27T18:08:52.421Z,7.70
2023-04-27T18:11:24.735Z,7.40
2023-04-27T18:13:55.929Z,7.20
2023-04-27T18:16:26.888Z,7.00
2023-04-27T18:18:57.092Z,6.80
2023-04-27T18:21:28.519Z,6.60
2023-04-27T18:23:58.937Z,6.50
2023-04-27T18:26:31.293Z,6.40
2023-04-27T18:29:01.609Z,6.20
2023-04-27T18:31:32.311Z,6.10
2023-04-27T18:34:02.673Z,6.00
2023-04-27T18:36:33.612Z,5.90
2023-04-27T18:39:03.915Z,5.90
2023-04-27T18:41:36.139Z,5.80
2023-04-27T18:44:07.134Z,5.80
2023-04-27T18:46:37.781Z,5.80
2023-04-27T18:49:08.225Z,5.80
2023-04-27T18:51:39.013Z,5.80
2023-04-27T18:54:09.311Z,5.80
2023-04-27T18:56:41.494Z,5.70
2023-04-27T18:59:12.486Z,5.70
2023-04-27T19:01:44.618Z,5.70
2023-04-27T19:04:16.430Z,5.70
2023-04-27T19:06:50.448Z,5.60
2023-04-27T19:09:21.804Z,5.40
2023-04-27T19:12:02.338Z,5.40
2023-04-27T19:14:34.105Z,5.30
2023-04-27T19:17:06.778Z,5.40
2023-04-27T19:19:39.222Z,5.40
2023-04-27T19:22:10.754Z,5.40
2023-04-27T19:24:41.712Z,5.50
2023-04-27T19:27:15.073Z,5.60
2023-04-27T19:29:53.499Z,5.70
2023-04-27T19:32:27.352Z,5.70
2023-04-27T19:34:59.994Z,5.70
2023-04-27T19:37:31.045Z,5.80
2023-04-27T19:40:01.780Z,5.70
2023-04-27T19:42:33.887Z,5.80
2023-04-27T19:45:05.151Z,5.70
2023-04-27T19:47:36.860Z,5.70
2023-04-27T19:50:08.835Z,5.80
2023-04-27T19:52:40.164Z,5.80
2023-04-27T19:55:11.901Z,5.60
2023-04-27T19:57:45.593Z,5.60
2023-04-27T20:00:20.389Z,5.60
2023-04-27T20:02:56.218Z,5.60
2023-04-27T20:05:28.534Z,5.60
2023-04-27T20:08:02.669Z,5.60
2023-04-27T20:10:35.023Z,5.70
2023-04-27T20:13:07.660Z,5.70
2023-04-27T20:15:37.825Z,5.70
2023-04-27T20:18:08.606Z,5.70
2023-04-27T20:20:39.055Z,5.70
2023-04-27T20:23:10.256Z,5.70
2023-04-27T20:25:40.896Z,5.70
2023-04-27T20:28:13.661Z,5.70
2023-04-27T20:30:44.190Z,5.70
2023-04-27T20:33:17.628Z,5.70
2023-04-27T20:35:48.627Z,5.70
2023-04-27T20:38:22.727Z,5.70
2023-04-27T20:40:55.125Z,5.70
2023-04-27T20:43:27.946Z,5.80
2023-04-27T20:46:01.139Z,5.80
2023-04-27T20:48:33.156Z,5.80
2023-04-27T20:51:04.103Z,5.80
2023-04-27T20:53:35.894Z,5.80
2023-04-27T20:56:08.262Z,5.80
2023-04-27T20:58:42.987Z,5.80
2023-04-27T21:01:13.509Z,5.60
2023-04-27T21:04:02.941Z,5.50
2023-04-27T21:06:33.397Z,5.20
2023-04-27T21:09:04.455Z,5.00
2023-04-27T21:11:39.736Z,5.00
2023-04-27T21:14:16.118Z,5.10
2023-04-27T21:16:47.625Z,5.00
2023-04-27T21:19:18.607Z,5.00
2023-04-27T21:21:49.258Z,4.90
2023-04-27T21:24:20.208Z,4.90
2023-04-27T21:26:51.561Z,4.90
2023-04-27T21:29:24.182Z,4.80
2023-04-27T21:31:55.073Z,4.80
2023-04-27T21:34:28.049Z,4.80
2023-04-27T21:36:59.059Z,4.80
2023-04-27T21:39:30.851Z,4.70
2023-04-27T21:42:01.644Z,4.70
2023-04-27T21:44:34.827Z,4.70
2023-04-27T21:47:05.274Z,4.60
2023-04-27T21:49:35.843Z,4.50
2023-04-27T21:52:06.660Z,4.40
2023-04-27T21:54:37.068Z,4.40
2023-04-27T21:57:07.500Z,4.40
2023-04-27T21:59:39.567Z,4.50
2023-04-27T22:02:09.984Z,4.50
2023-04-27T22:04:40.794Z,4.50
2023-04-27T22:07:12.154Z,4.50
2023-04-27T22:09:43.012Z,4.50
2023-04-27T22:12:13.204Z,4.50
2023-04-27T22:14:47.017Z,4.60
2023-04-27T22:17:17.050Z,4.60
2023-04-27T22:19:47.440Z,4.60
2023-04-27T22:22:17.887Z,4.60
2023-04-27T22:24:48.767Z,4.60
2023-04-27T22:27:19.029Z,4.60
2023-04-27T22:29:51.131Z,4.50
2023-04-27T22:32:23.652Z,4.50
2023-04-27T22:34:54.609Z,4.60
2023-04-27T22:37:25.203Z,4.60
2023-04-27T22:39:56.674Z,4.60
2023-04-27T22:42:27.406Z,4.70
2023-04-27T22:44:59.606Z,4.60
2023-04-27T22:47:29.839Z,4.60
2023-04-27T22:50:01.468Z,4.50
2023-04-27T22:52:33.847Z,4.50
2023-04-27T22:55:04.600Z,4.50
2023-04-27T22:57:35.011Z,4.50
2023-04-27T23:00:09.111Z,4.50
2023-04-27T23:02:40.442Z,4.50
2023-04-27T23:05:12.528Z,4.60
2023-04-27T23:07:43.585Z,4.60
2023-04-27T23:10:15.293Z,4.60
2023-04-27T23:12:45.732Z,4.80
2023-04-27T23:15:17.809Z,4.80
2023-04-27T23:17:48.129Z,4.90
2023-04-27T23:20:28.110Z,5.00
2023-04-27T23:22:59.367Z,4.90
2023-04-27T23:25:30.212Z,4.90
2023-04-27T23:28:01.073Z,5.00
2023-04-27T23:30:34.372Z,4.90
2023-04-27T23:33:04.694Z,4.90
2023-04-27T23:35:35.580Z,4.90
2023-04-27T23:38:05.830Z,4.80
2023-04-27T23:40:36.539Z,4.80
2023-04-27T23:43:06.935Z,4.80
2023-04-27T23:45:40.042Z,4.80
2023-04-27T23:48:10.397Z,4.80
2023-04-27T23:50:41.247Z,4.80
2023-04-27T23:53:11.646Z,4.80
2023-04-27T23:55:42.976Z,4.80
2023-04-27T23:58:13.362Z,4.80
